Peak, SC (29122)

10:49 PM EST on November 19, 2017 (GMT -0500)
Little Mountain | | Change Station
Active Advisory: Freeze Warning

Elev 614 ft 34.19 °N, 81.43 °W | Updated 4 minutes ago

Clear
Clear
42.1 °F
Feels Like 42 °F
N
0.0
Wind Variable Wind from NE
Gusts 0.0 mph

Today
High -- | Low -- °F
--% Chance of Precip.
Yesterday
High -- | Low -- °F
Precip. -- in
Pressure 30.09 in
Visibility 10.0 miles
Clouds Clear
Windchill 42 °F
Dew Point 31 °F
Humidity 65%
Rainfall 0.00 in
Snow Depth Not available.
7:02 AM 5:18 PM
Waxing Crescent, 3% visible
METAR KFDW 200335Z AUTO 33004KT 10SM CLR 03/M01 A3009 RMK AO1
Pressure 30.09 in
Visibility 10.0 miles
Clouds Clear
Windchill 42 °F
Dew Point 31 °F
Humidity 65%
Rainfall 0.00 in
Snow Depth Not available.
7:02 AM 5:18 PM
Waxing Crescent, 3% visible
METAR KFDW 200335Z AUTO 33004KT 10SM CLR 03/M01 A3009 RMK AO1

Get Your Daily Forecast Email!

Thanks for signing up!

Be on the lookout for a verification email in your inbox.

You'll start receiving severe weather alerts in your inbox..

×

10-Day Weather Forecast

Almanac

Astronomy

Nov. 19, 2017 Rise Set
Actual Time
Civil Twilight
Nautical Twilight
Astronomical Twilight
Moon
Length of Visible Light
Length of Day
Tomorrow will be .
, % of the Moon is Illuminated

Today's Extremes

State Highs State Lows

Community

WunderPhotos

Category 6

Welcome to Category 6. This is the collective home for Weather Underground's featured writeups by Dr. Jeff Masters (right), Bob Henson (left), Chris Burt, and other regular contributors.

Nearby

Air Quality

  Air Quality AQ Index Pollutant
Not available.

Snow Depth

Station Depth Elevation

Earthquake Activity

City Distance Mag. Time & Date
Minimum magnitude displayed is 2.5.

Coastal Water Temperatures

Place Temperature

Stations

Nearby Weather Stations

Station Location Temp. Windchill Dew Point Humidity Wind Precip. Elev Updated Type
                   

Watches & Warnings

Freeze Warning
Issued: 1:34 PM EST Nov. 19, 2017 – National Weather Service

... Freeze warning in effect from 4 am to 8 am EST Monday...

The National Weather Service in Columbia has issued a freeze
warning, which is in effect from 4 am to 8 am EST Monday.

* Temperature... lows in the lower 30s.

* Impacts... freezing temperatures may damage sensitive vegetation.

Precautionary/preparedness actions...

A freeze warning means sub-freezing temperatures are imminent or
highly likely. These conditions will kill crops and other
sensitive vegetation. Ensure livestock and any outdoor pets have
shelter from the cold.